San Antonio International Airport
KSAT : rendu visible

Aérodrome :











RETROUVEZ-NOUS SUR...

 
LOGIN :

S'inscrire | Disclaimer

   EN    FR    IT 

 









Légende :    VFR   VFR Marginal   IFR   IFR Intensif   IFR Très Intensif
Visi : 
Plafond : 
>= 8 km
>= 3000ft
5 à 8 km
1000 à 3000 ft
1500m à 5 km
500 à 1000 ft
800 à 1500m
200 à 500 ft
< 800m
< 200 ft
Symboles :   Orages  Brouillard  Fortes neiges  Fortes précipitations  Vent > 20 kt






- Altitude de l'aérodrome : 809 ft
- Code IATA : SAT


KSAT - San Antonio International

DERNIER METAR :
  • 100751Z 01017G25KT 10SM OVC045 15/03 A2995 RMK AO2 PK WND 01026/0713 SLP127 T01500028

METARs EXPIRÉS :
  • 100651Z 02016G26KT 10SM BKN042 OVC050 16/03 A2994 RMK AO2 PK WND 02026/0624 SLP125 T01610033
  • 100551Z 01015G21KT 10SM SCT041 OVC060 18/04 A2994 RMK AO2 SLP124 T01780044 10217 20178 402560161 51018

TAF KSAT
Valide du 10 à 06h jusqu'au 11 à 12h UTC


100520Z 1006/1112 01017G27KT P6SM VCSH BKN035
TEMPO 1009/1013 -RA BKN025
FM101300 01014G24KT P6SM -RA BKN015
FM101800 01015KT P6SM BKN015
FM110100 01010KT P6SM BKN025
FM110400 36006KT P6SM SCT045



MET'MAP, la Météo Aéronautique d'un coup d'oeil ! - Copyright ORBIFLY Décembre 2007 - Disclaimer

ORBIFLY MET'MAP TEAM :

Programmation & Développement : Alexandra Zaïnal
Sur une idée originale de : Baudouin d'Aumeries
Assistance à la programmation : Marc-Olivier Méhu
Soutien technique & logistique : Manuel Goepfert

Contact : metmap@orbifly.com




SOURCES & CREDITS :

   NOAA       Earth
Advisory